Time;durP1;ratioP1;P1;durP2;ratioP2;P2;SDS_P1;SDS_P2;PMS_P1;PMS_P2;Temp;Humidity;BMP_temperature;BMP_pressure;BME280_temperature;BME280_humidity;BME280_pressure;Samples;Min_cycle;Max_cycle;Signal;HPM_P1;HPM_P2
2021/07/06 17:58:53;;;;;;;5.42;4.60;;;;;;;28.80;59.79;99894.28;1799306;77;22180;-57
2021/07/06 18:04:18;;;;;;;6.50;4.08;;;;;;;29.65;57.13;99899.50;1793729;77;22202;-57
2021/07/06 18:06:51;;;;;;;6.80;4.05;;;;;;;29.77;56.63;99910.96;1834463;77;22200;-57
2021/07/06 18:09:24;;;;;;;7.53;4.17;;;;;;;29.53;57.20;99915.16;1805831;77;22230;-57
2021/07/06 18:12:20;;;;;;;5.10;3.98;;;;;;;27.85;61.49;99920.72;1827361;77;22180;-57
2021/07/06 18:14:54;;;;;;;6.15;4.65;;;;;;;27.60;62.32;99922.13;1819067;77;22656;-57
2021/07/06 18:17:27;;;;;;;4.67;4.28;;;;;;;27.44;63.15;99923.48;1832263;77;22200;-57
2021/07/06 18:20:19;;;;;;;5.90;3.87;;;;;;;27.27;63.54;99930.41;1835987;77;22138;-57
2021/07/06 18:22:53;;;;;;;4.50;4.10;;;;;;;27.37;63.42;99926.89;1825895;77;22668;-57
2021/07/06 18:25:26;;;;;;;5.80;4.40;;;;;;;27.42;63.17;99928.68;1827115;77;22210;-58
2021/07/06 18:27:59;;;;;;;4.78;4.03;;;;;;;27.43;62.96;99933.93;1833237;78;22173;-57
2021/07/06 18:30:33;;;;;;;5.20;3.95;;;;;;;27.44;62.86;99930.23;1834214;78;22175;-58
2021/07/06 18:33:26;;;;;;;7.00;4.17;;;;;;;27.43;62.77;99928.53;1829031;77;22196;-57
2021/07/06 18:35:59;;;;;;;4.67;4.00;;;;;;;27.49;62.76;99924.95;1834439;77;22679;-57
2021/07/06 18:38:32;;;;;;;4.65;4.08;;;;;;;27.29;63.15;99926.24;1798661;77;22608;-57
2021/07/06 18:41:05;;;;;;;5.15;4.12;;;;;;;27.29;63.24;99927.08;1834519;77;22626;-57
2021/07/06 18:43:39;;;;;;;4.25;3.85;;;;;;;27.34;62.89;99925.81;1813271;77;22223;-58
2021/07/06 18:46:13;;;;;;;5.30;4.08;;;;;;;27.13;63.46;99930.31;1829349;77;22210;-57
2021/07/06 18:49:06;;;;;;;5.33;3.85;;;;;;;27.10;63.60;99941.90;1799007;77;22206;-58
2021/07/06 18:51:41;;;;;;;4.80;3.83;;;;;;;27.00;63.85;99944.55;1830221;77;22570;-58
2021/07/06 18:54:14;;;;;;;4.45;4.05;;;;;;;26.97;63.86;99950.21;1825963;77;22201;-57
2021/07/06 18:56:47;;;;;;;4.75;3.92;;;;;;;27.15;63.52;99941.00;1842822;77;22628;-57
2021/07/06 18:59:40;;;;;;;4.90;3.83;;;;;;;26.97;63.94;99939.41;1819252;77;22225;-57
2021/07/06 19:05:09;;;;;;;5.22;4.25;;;;;;;26.91;63.91;99946.22;1834562;77;22172;-57
2021/07/06 19:07:45;;;;;;;5.62;3.62;;;;;;;26.85;64.16;99945.41;1828929;77;22512;-57
2021/07/06 19:10:18;;;;;;;6.47;5.30;;;;;;;26.78;64.40;99955.00;1837112;77;28448;-57
2021/07/06 19:12:51;;;;;;;4.50;4.10;;;;;;;26.74;64.53;99955.77;1819186;77;22664;-57
2021/07/06 19:15:44;;;;;;;4.80;4.10;;;;;;;26.91;64.23;99966.47;1829259;77;22143;-56
2021/07/06 19:18:17;;;;;;;12.35;5.03;;;;;;;26.92;64.16;99964.13;1821118;77;22226;-57
2021/07/06 19:21:10;;;;;;;5.87;4.30;;;;;;;26.86;64.32;99963.31;1851651;77;22178;-56
2021/07/06 19:26:43;;;;;;;7.17;4.75;;;;;;;26.96;64.07;99964.70;1852782;77;22139;-57
2021/07/06 19:32:25;;;;;;;5.42;4.90;;;;;;;26.93;64.05;99971.24;1815697;77;22210;-57
2021/07/06 19:35:00;;;;;;;4.97;4.47;;;;;;;26.89;64.16;99976.55;1819669;77;22614;-57
2021/07/06 19:37:34;;;;;;;8.00;6.10;;;;;;;26.83;64.21;99975.73;1815254;77;27987;-58
2021/07/06 19:40:09;;;;;;;7.62;5.12;;;;;;;26.93;63.96;99987.95;1834459;77;22179;-56
2021/07/06 19:42:43;;;;;;;8.20;5.47;;;;;;;26.97;63.96;99992.06;1786131;77;28205;-57
2021/07/06 19:45:16;;;;;;;5.53;5.03;;;;;;;26.97;63.84;99991.59;1834510;77;22155;-56
2021/07/06 19:47:49;;;;;;;5.85;4.90;;;;;;;26.99;63.77;99983.34;1827326;77;22205;-58
2021/07/06 19:50:23;;;;;;;5.50;5.00;;;;;;;27.00;63.73;99985.05;1818614;77;22139;-56
2021/07/06 19:53:15;;;;;;;9.10;4.85;;;;;;;26.95;63.78;99985.46;1806768;77;22206;-57
2021/07/06 19:55:48;;;;;;;9.05;5.08;;;;;;;26.81;64.02;99990.73;1834489;77;22203;-57
2021/07/06 19:58:23;;;;;;;6.00;5.33;;;;;;;26.81;64.06;99989.83;1820097;77;22190;-57
2021/07/06 20:00:57;;;;;;;7.12;5.50;;;;;;;26.80;64.09;99996.21;1832659;77;22622;-58
2021/07/06 20:03:32;;;;;;;5.72;5.00;;;;;;;26.94;63.63;99997.25;1818016;77;22202;-56
2021/07/06 20:06:05;;;;;;;8.60;6.60;;;;;;;26.83;63.88;99997.33;1834465;77;22199;-56
2021/07/06 20:08:38;;;;;;;5.90;5.30;;;;;;;26.90;63.62;99996.31;1814900;77;22633;-57
2021/07/06 20:11:31;;;;;;;5.30;4.80;;;;;;;26.82;63.77;99995.62;1819997;77;22175;-56
2021/07/06 20:14:05;;;;;;;7.03;5.10;;;;;;;26.67;64.00;99999.13;1810438;77;22170;-57
2021/07/06 20:16:39;;;;;;;7.58;5.78;;;;;;;26.77;63.82;99999.17;1824630;77;22555;-56
2021/07/06 20:19:12;;;;;;;6.35;5.22;;;;;;;26.70;63.87;99998.86;1806138;77;22167;-57
2021/07/06 20:22:06;;;;;;;6.92;4.85;;;;;;;26.69;63.91;100002.55;1829700;77;22158;-57
2021/07/06 20:24:39;;;;;;;9.95;5.20;;;;;;;26.62;64.07;100003.58;1820288;77;22213;-57
2021/07/06 20:27:31;;;;;;;6.65;5.37;;;;;;;26.63;64.02;100010.70;1830813;77;22140;-56
2021/07/06 20:30:06;;;;;;;6.60;4.78;;;;;;;26.68;63.85;100010.28;1834497;77;22172;-57
2021/07/06 20:32:39;;;;;;;6.92;5.10;;;;;;;26.60;63.93;100012.30;1829709;77;22610;-57
2021/07/06 20:35:32;;;;;;;5.47;4.95;;;;;;;26.52;64.12;100014.29;1852953;77;23115;-56
2021/07/06 20:38:05;;;;;;;7.58;6.05;;;;;;;26.65;63.75;100014.59;1815622;77;22221;-57
2021/07/06 20:40:58;;;;;;;7.83;6.05;;;;;;;26.65;63.73;100017.30;1834489;77;22572;-57
2021/07/06 20:43:31;;;;;;;5.72;5.03;;;;;;;26.50;64.11;100015.42;1818045;77;22226;-56
2021/07/06 20:46:24;;;;;;;5.40;4.85;;;;;;;26.47;64.19;100023.78;1833772;77;22156;-57
2021/07/06 20:48:57;;;;;;;5.83;5.30;;;;;;;26.50;63.95;100019.47;1794999;77;22228;-58
2021/07/06 20:51:30;;;;;;;7.17;5.58;;;;;;;26.56;63.78;100020.30;1821285;77;22185;-57
2021/07/06 20:54:04;;;;;;;6.30;5.70;;;;;;;26.55;63.79;100023.48;1810650;77;22653;-57
2021/07/06 20:56:37;;;;;;;5.90;4.92;;;;;;;26.53;63.79;100024.10;1814574;77;22609;-56
2021/07/06 20:59:35;;;;;;;5.87;5.17;;;;;;;26.53;63.74;100024.10;1802621;77;22601;-57
2021/07/06 21:02:08;;;;;;;6.78;5.35;;;;;;;26.33;64.31;100033.05;1834504;77;22168;-57
2021/07/06 21:04:41;;;;;;;7.83;5.22;;;;;;;26.11;65.00;100026.23;1810922;77;22200;-56
2021/07/06 21:07:14;;;;;;;5.45;4.95;;;;;;;26.15;65.02;100025.51;1830489;77;22620;-58
2021/07/06 21:09:48;;;;;;;9.43;5.50;;;;;;;26.17;64.89;100020.84;1846645;77;22178;-57
2021/07/06 21:12:40;;;;;;;5.50;4.97;;;;;;;26.13;64.89;100024.78;1817701;77;22202;-56
2021/07/06 21:15:14;;;;;;;6.00;5.40;;;;;;;26.07;65.10;100022.08;1833696;77;22582;-56
2021/07/06 21:17:47;;;;;;;6.28;5.67;;;;;;;26.07;65.19;100022.56;1807743;77;22202;-56
2021/07/06 21:20:20;;;;;;;6.17;5.58;;;;;;;25.86;65.67;100025.20;1818225;77;22182;-57
2021/07/06 21:22:53;;;;;;;6.08;5.22;;;;;;;25.94;65.54;100023.60;1823927;77;22225;-57
2021/07/06 21:25:26;;;;;;;6.75;6.08;;;;;;;26.02;65.35;100019.42;1851879;77;22166;-57
2021/07/06 21:27:59;;;;;;;6.65;5.30;;;;;;;25.83;65.80;100023.12;1843202;77;22229;-57
2021/07/06 21:30:36;;;;;;;6.22;5.28;;;;;;;25.70;66.31;100018.39;1834551;77;22175;-57
2021/07/06 21:33:27;;;;;;;6.62;5.65;;;;;;;25.84;65.90;100023.99;1812170;77;22206;-57
2021/07/06 21:36:00;;;;;;;5.97;5.47;;;;;;;25.84;65.84;100028.88;1831416;77;22155;-57
2021/07/06 21:38:33;;;;;;;7.83;5.87;;;;;;;25.60;66.42;100026.38;1817572;77;22207;-58
2021/07/06 21:41:06;;;;;;;8.90;5.95;;;;;;;25.52;66.76;100026.14;1842591;77;22594;-57
2021/07/06 21:43:58;;;;;;;6.95;5.92;;;;;;;25.51;66.87;100026.62;1811731;77;22234;-57
2021/07/06 21:46:31;;;;;;;6.58;5.97;;;;;;;25.32;67.39;100027.72;1852907;77;22155;-57
2021/07/06 21:49:24;;;;;;;9.98;6.20;;;;;;;25.26;67.71;100031.73;1806093;77;22186;-57
2021/07/06 21:51:59;;;;;;;6.30;5.55;;;;;;;25.19;68.01;100034.08;1821839;77;22164;-56
2021/07/06 21:54:31;;;;;;;6.58;5.92;;;;;;;25.17;68.11;100043.27;1802800;77;22210;-57
2021/07/06 21:57:05;;;;;;;6.83;6.12;;;;;;;25.20;68.05;100046.56;1827210;77;22613;-57
2021/07/06 21:59:38;;;;;;;7.58;5.72;;;;;;;25.21;68.18;100050.97;1830739;77;22199;-57
2021/07/06 22:02:30;;;;;;;6.95;5.60;;;;;;;25.27;67.94;100044.73;1796058;77;22190;-56
2021/07/06 22:05:04;;;;;;;6.47;5.62;;;;;;;25.27;67.92;100042.88;1821902;77;22131;-57
2021/07/06 22:07:37;;;;;;;9.28;5.72;;;;;;;25.25;68.04;100040.80;1830041;77;22866;-57
2021/07/06 22:10:30;;;;;;;9.95;5.67;;;;;;;25.24;68.26;100051.20;1813515;77;22182;-57
2021/07/06 22:13:03;;;;;;;7.40;5.78;;;;;;;25.25;68.33;100048.88;1824223;77;22202;-56
2021/07/06 22:15:55;;;;;;;7.30;6.25;;;;;;;25.12;68.79;100053.55;1822089;77;22124;-57
2021/07/06 22:18:28;;;;;;;6.70;6.05;;;;;;;25.09;68.97;100048.77;1829852;77;22233;-56
2021/07/06 22:21:01;;;;;;;6.35;5.75;;;;;;;25.09;68.90;100051.46;1834485;77;22179;-56
2021/07/06 22:23:34;;;;;;;7.97;5.33;;;;;;;25.15;68.71;100042.03;1813182;77;22229;-57
2021/07/06 22:26:08;;;;;;;5.75;5.25;;;;;;;25.11;68.68;100041.90;1818561;77;22198;-57
2021/07/06 22:29:00;;;;;;;6.10;5.22;;;;;;;25.17;68.61;100044.11;1810631;77;22194;-57
2021/07/06 22:31:33;;;;;;;7.58;5.58;;;;;;;25.06;68.76;100046.31;1844442;77;22672;-56
2021/07/06 22:34:25;;;;;;;5.95;5.42;;;;;;;25.00;68.93;100054.87;1799103;77;22262;-57
2021/07/06 22:36:58;;;;;;;6.15;4.90;;;;;;;25.02;68.95;100056.95;1852651;77;22179;-57
2021/07/06 22:39:32;;;;;;;7.05;5.58;;;;;;;25.03;68.80;100064.05;1790679;77;22176;-57
2021/07/06 22:42:24;;;;;;;7.45;5.53;;;;;;;25.00;68.93;100063.41;1819098;77;22177;-57
2021/07/06 22:44:57;;;;;;;6.22;5.50;;;;;;;24.96;69.02;100073.58;1834539;77;22172;-57
2021/07/06 22:47:36;;;;;;;8.35;5.65;;;;;;;24.91;69.03;100077.11;1828763;77;22112;-57
2021/07/06 22:50:11;;;;;;;6.55;5.75;;;;;;;24.94;68.76;100077.75;1820277;77;22174;-56
2021/07/06 22:52:44;;;;;;;7.47;5.80;;;;;;;24.94;68.74;100072.84;1804767;77;22179;-56
2021/07/06 22:55:36;;;;;;;6.33;5.00;;;;;;;24.94;68.81;100071.50;1833824;77;23172;-56
2021/07/06 22:58:10;;;;;;;6.33;5.45;;;;;;;24.95;68.75;100068.67;1840759;77;22229;-57
2021/07/06 23:00:43;;;;;;;6.58;5.03;;;;;;;24.90;68.82;100065.98;1829570;77;22589;-57
2021/07/06 23:03:16;;;;;;;6.08;5.55;;;;;;;24.87;68.78;100070.25;1821459;77;22206;-57
2021/07/06 23:05:49;;;;;;;8.20;5.78;;;;;;;24.84;68.97;100079.91;1851886;77;22530;-57
2021/07/06 23:08:22;;;;;;;7.42;5.55;;;;;;;24.88;68.75;100077.35;1819454;77;22234;-57
2021/07/06 23:11:14;;;;;;;6.47;5.65;;;;;;;24.78;68.88;100071.33;1832692;77;22205;-58
2021/07/06 23:13:47;;;;;;;6.72;5.30;;;;;;;24.85;68.79;100074.42;1833653;77;22177;-56
2021/07/06 23:16:20;;;;;;;7.28;5.75;;;;;;;24.90;68.67;100076.27;1833971;77;22199;-56
2021/07/06 23:18:53;;;;;;;6.90;6.17;;;;;;;24.94;68.43;100074.19;1828029;77;22211;-57
2021/07/06 23:21:27;;;;;;;8.50;5.58;;;;;;;24.91;68.50;100073.08;1834558;77;22176;-57
2021/07/06 23:24:19;;;;;;;5.97;5.35;;;;;;;24.90;68.45;100074.92;1806390;77;22234;-57
2021/07/06 23:26:53;;;;;;;10.63;5.50;;;;;;;24.81;68.65;100081.02;1814334;77;22143;-57
2021/07/06 23:29:45;;;;;;;6.60;5.53;;;;;;;24.78;68.61;100078.56;1830882;77;22159;-57
2021/07/06 23:32:18;;;;;;;6.25;5.42;;;;;;;24.79;68.48;100075.73;1830270;77;22535;-56
2021/07/06 23:35:12;;;;;;;6.58;5.97;;;;;;;24.72;68.65;100074.98;1851835;77;22595;-57
2021/07/06 23:37:45;;;;;;;6.05;5.42;;;;;;;24.70;68.73;100075.09;1845863;77;22577;-56
2021/07/06 23:40:37;;;;;;;6.60;5.97;;;;;;;24.75;68.56;100075.59;1834537;77;22148;-57
2021/07/06 23:43:10;;;;;;;6.62;5.80;;;;;;;24.78;68.44;100076.70;1822808;77;23305;-56
2021/07/06 23:46:02;;;;;;;6.42;5.78;;;;;;;24.72;68.53;100078.55;1852946;77;22167;-56
2021/07/06 23:48:36;;;;;;;5.97;5.12;;;;;;;24.65;68.72;100075.92;1816151;77;22594;-56
2021/07/06 23:51:10;;;;;;;6.90;6.28;;;;;;;24.63;68.83;100078.72;1839547;77;22584;-57
2021/07/06 23:54:02;;;;;;;8.40;5.67;;;;;;;24.57;69.00;100079.69;1791556;77;22649;-56
2021/07/06 23:56:35;;;;;;;6.90;6.05;;;;;;;24.54;69.06;100078.57;1852890;77;22195;-57
2021/07/06 23:59:08;;;;;;;7.87;6.00;;;;;;;24.55;68.98;100073.56;1788986;77;22207;-56
